Weather at Seung In Nobil Apartments Heliport

Public forecast

Using degrees Celsius for public forecast. Weather courtesy of forecast.io.

Closest aviation weather report (METAR) to Seung In Nobil Apartments Heliport

Closest report is Gimhae International Airport, 6.3 nm (11.7 km) WNW. Retrieved 2020/09/24 07:00 UTC (56 minutes ago):

RKPK 240700Z 01013KT 9999 SCT040 BKN100 25/13 Q1011

Closest aviation forecast (TAF) to Seung In Nobil Apartments Heliport

Closest forecast is Gimhae International Airport, 6.3 nm (11.7 km) WNW. Retrieved 2020/09/24 06:00 UTC (2 hours ago):

TAF RKPK 240500Z 2406/2512 03010KT 9999 BKN030 BKN100 TN16/2421Z TX25/2506Z